Time;durP1;ratioP1;P1;durP2;ratioP2;P2;SDS_P1;SDS_P2;PMS_P1;PMS_P2;Temp;Humidity;BMP_temperature;BMP_pressure;BME280_temperature;BME280_humidity;BME280_pressure;Samples;Min_cycle;Max_cycle;Signal;HPM_P1;HPM_P2
2022/09/09 00:00:49;;;;;;;;;;;14.20;99.90;;;;;;5075442;28;19935;-81
2022/09/09 00:03:21;;;;;;;;;;;14.20;99.90;;;;;;5092241;28;20264;-81
2022/09/09 00:05:47;;;;;;;;;;;14.20;99.90;;;;;;5109619;28;19931;-81
2022/09/09 00:08:18;;;;;;;;;;;14.20;99.90;;;;;;5096088;28;20000;-81
2022/09/09 00:10:45;;;;;;;;;;;14.20;99.90;;;;;;5114493;28;19927;-82
2022/09/09 00:13:29;;;;;;;;;;;14.20;99.90;;;;;;5099880;28;19924;-81
2022/09/09 00:16:10;;;;;;;;;;;14.20;99.90;;;;;;5116860;28;19924;-81
2022/09/09 00:18:44;;;;;;;;;;;14.20;99.90;;;;;;5117548;28;20026;-81
2022/09/09 00:21:17;;;;;;;;;;;14.20;99.90;;;;;;5116768;28;20212;-81
2022/09/09 00:23:51;;;;;;;;;;;14.20;99.90;;;;;;5116726;28;19924;-79
2022/09/09 00:26:28;;;;;;;;;;;14.20;99.90;;;;;;5099015;28;19924;-79
2022/09/09 00:28:54;;;;;;;;;;;14.10;99.90;;;;;;5116721;28;19927;-79
2022/09/09 00:31:22;;;;;;;;;;;14.10;99.90;;;;;;5099490;28;20068;-79
2022/09/09 00:33:49;;;;;;;;;;;14.10;99.90;;;;;;5117160;28;19946;-79
2022/09/09 00:36:17;;;;;;;;;;;14.10;99.90;;;;;;5082487;28;19973;-81
2022/09/09 00:38:46;;;;;;;;;;;14.10;99.90;;;;;;5116348;28;20371;-79
2022/09/09 00:41:18;;;;;;;;;;;14.10;99.90;;;;;;5116286;28;20372;-80
2022/09/09 00:43:46;;;;;;;;;;;14.00;99.90;;;;;;5099185;28;20049;-79
2022/09/09 00:46:12;;;;;;;;;;;14.00;99.90;;;;;;5116229;28;19924;-79
2022/09/09 00:48:52;;;;;;;;;;;14.00;99.90;;;;;;5116174;28;19946;-79
2022/09/09 00:51:27;;;;;;;;;;;14.00;99.90;;;;;;5116802;28;20358;-79
2022/09/09 00:53:59;;;;;;;;;;;14.00;99.90;;;;;;5116796;28;19992;-79
2022/09/09 00:56:31;;;;;;;;;;;14.00;99.90;;;;;;5098894;28;19923;-79
2022/09/09 00:59:23;;;;;;;;;;;14.00;99.90;;;;;;5115836;28;19924;-79
2022/09/09 01:01:48;;;;;;;;;;;13.90;99.90;;;;;;5111527;28;19923;-80
2022/09/09 01:04:16;;;;;;;;;;;14.00;99.90;;;;;;5115684;28;20029;-79
2022/09/09 01:06:46;;;;;;;;;;;13.90;99.90;;;;;;5115495;28;19923;-79
2022/09/09 01:09:20;;;;;;;;;;;13.90;99.90;;;;;;5115520;28;19931;-79
2022/09/09 01:11:52;;;;;;;;;;;13.90;99.90;;;;;;5116443;28;20248;-79
2022/09/09 01:14:36;;;;;;;;;;;13.90;99.90;;;;;;5115334;28;19981;-79
2022/09/09 01:17:18;;;;;;;;;;;13.90;99.90;;;;;;5116411;28;19989;-79
2022/09/09 01:19:43;;;;;;;;;;;13.90;99.90;;;;;;5116027;28;19928;-79
2022/09/09 01:22:14;;;;;;;;;;;13.90;99.90;;;;;;5114494;28;20321;-79
2022/09/09 01:24:44;;;;;;;;;;;13.80;99.90;;;;;;5115720;28;19924;-79
2022/09/09 01:27:10;;;;;;;;;;;13.80;99.90;;;;;;5115028;28;20371;-79
2022/09/09 01:29:36;;;;;;;;;;;13.80;99.90;;;;;;5115259;28;20016;-79
2022/09/09 01:32:03;;;;;;;;;;;13.70;99.90;;;;;;5115357;28;19924;-79
2022/09/09 01:34:31;;;;;;;;;;;13.70;99.90;;;;;;5098280;28;20307;-79
2022/09/09 01:37:05;;;;;;;;;;;13.70;99.90;;;;;;5116098;28;19924;-79
2022/09/09 01:39:31;;;;;;;;;;;13.70;99.90;;;;;;5115861;28;19931;-79
2022/09/09 01:41:57;;;;;;;;;;;13.70;99.90;;;;;;5098063;28;19972;-79
2022/09/09 01:44:24;;;;;;;;;;;13.60;99.90;;;;;;5115052;28;20017;-79
2022/09/09 01:46:49;;;;;;;;;;;13.60;99.90;;;;;;5114949;28;19924;-79
2022/09/09 01:49:16;;;;;;;;;;;13.60;99.90;;;;;;5097848;28;19930;-79
2022/09/09 01:51:42;;;;;;;;;;;13.60;99.90;;;;;;5115920;28;20390;-78
2022/09/09 01:54:08;;;;;;;;;;;13.60;99.90;;;;;;5097881;28;19977;-79
2022/09/09 01:56:42;;;;;;;;;;;13.50;99.90;;;;;;5116225;28;20350;-79
2022/09/09 01:59:14;;;;;;;;;;;13.60;99.90;;;;;;5098038;28;19924;-79
2022/09/09 02:01:41;;;;;;;;;;;13.60;99.90;;;;;;5114940;28;19928;-79
2022/09/09 02:04:33;;;;;;;;;;;13.60;99.90;;;;;;5114266;28;20328;-81
2022/09/09 02:06:59;;;;;;;;;;;13.50;99.90;;;;;;5096976;28;19923;-81
2022/09/09 02:09:26;;;;;;;;;;;13.50;99.90;;;;;;5115839;28;19935;-81
2022/09/09 02:11:58;;;;;;;;;;;13.50;99.90;;;;;;5097747;28;19947;-81
2022/09/09 02:14:30;;;;;;;;;;;13.50;99.90;;;;;;5114461;28;19927;-81
2022/09/09 02:17:09;;;;;;;;;;;13.50;99.90;;;;;;5097434;28;19924;-81
2022/09/09 02:19:38;;;;;;;;;;;13.50;99.90;;;;;;5114575;28;19932;-81
2022/09/09 02:22:04;;;;;;;;;;;13.50;99.90;;;;;;5098089;28;20360;-81
2022/09/09 02:24:33;;;;;;;;;;;13.50;99.90;;;;;;5097196;28;19931;-81
2022/09/09 02:27:01;;;;;;;;;;;13.50;99.90;;;;;;5114306;28;19930;-80
2022/09/09 02:29:29;;;;;;;;;;;13.50;99.90;;;;;;5114165;28;20277;-81
2022/09/09 02:31:57;;;;;;;;;;;13.50;99.90;;;;;;5097155;28;19924;-80
2022/09/09 02:34:24;;;;;;;;;;;13.50;99.90;;;;;;5113859;28;19923;-81
2022/09/09 02:36:50;;;;;;;;;;;13.50;99.90;;;;;;5097084;28;19923;-81
2022/09/09 02:39:16;;;;;;;;;;;13.50;99.90;;;;;;5114008;28;19924;-81
2022/09/09 02:41:42;;;;;;;;;;;13.60;99.90;;;;;;5113610;28;19962;-81
2022/09/09 02:44:12;;;;;;;;;;;13.50;99.90;;;;;;5113849;28;19924;-81
2022/09/09 02:46:56;;;;;;;;;;;13.60;99.90;;;;;;5113162;28;19923;-81
2022/09/09 02:49:35;;;;;;;;;;;13.50;99.90;;;;;;5114025;28;20324;-81
2022/09/09 02:52:07;;;;;;;;;;;13.50;99.90;;;;;;5114549;28;19923;-82
2022/09/09 02:54:36;;;;;;;;;;;13.50;99.90;;;;;;5113717;28;19975;-81
2022/09/09 02:57:12;;;;;;;;;;;13.50;99.90;;;;;;5113852;28;19961;-81
2022/09/09 02:59:38;;;;;;;;;;;13.50;99.90;;;;;;5113894;28;19982;-81
2022/09/09 03:02:03;;;;;;;;;;;13.50;99.90;;;;;;5113142;28;20038;-81
2022/09/09 03:04:30;;;;;;;;;;;13.50;99.90;;;;;;5113214;28;19934;-81
2022/09/09 03:06:57;;;;;;;;;;;13.50;99.90;;;;;;5113136;28;19930;-81
2022/09/09 03:09:22;;;;;;;;;;;13.50;99.90;;;;;;5096298;28;19974;-81
2022/09/09 03:11:49;;;;;;;;;;;13.50;99.90;;;;;;5113435;28;19975;-81
2022/09/09 03:14:15;;;;;;;;;;;13.50;99.90;;;;;;5113348;28;19962;-81
2022/09/09 03:16:42;;;;;;;;;;;13.50;99.90;;;;;;5113399;28;19930;-81
2022/09/09 03:19:08;;;;;;;;;;;13.50;99.90;;;;;;5114048;28;19989;-81
2022/09/09 03:21:34;;;;;;;;;;;13.40;99.90;;;;;;5113380;28;20371;-80
2022/09/09 03:23:59;;;;;;;;;;;13.40;99.90;;;;;;5080108;28;20359;-81
2022/09/09 03:26:25;;;;;;;;;;;13.50;99.90;;;;;;5096012;28;19924;-81
2022/09/09 03:28:51;;;;;;;;;;;13.50;99.90;;;;;;5113881;28;19928;-81
2022/09/09 03:31:18;;;;;;;;;;;13.50;99.90;;;;;;5113196;28;19979;-81
2022/09/09 03:33:43;;;;;;;;;;;13.50;99.90;;;;;;5113052;28;20359;-81
2022/09/09 03:36:09;;;;;;;;;;;13.50;99.90;;;;;;5112806;28;19976;-81
2022/09/09 03:38:34;;;;;;;;;;;13.50;99.90;;;;;;5113371;28;19924;-81
2022/09/09 03:41:01;;;;;;;;;;;13.50;99.90;;;;;;5112933;28;20018;-81
2022/09/09 03:43:28;;;;;;;;;;;13.50;99.90;;;;;;5112721;28;19924;-81
2022/09/09 03:45:56;;;;;;;;;;;13.50;99.90;;;;;;5114469;28;20028;-80
2022/09/09 03:48:22;;;;;;;;;;;13.50;99.90;;;;;;5117842;28;20007;-81
2022/09/09 03:50:49;;;;;;;;;;;13.50;99.90;;;;;;5117242;28;19930;-81
2022/09/09 03:53:16;;;;;;;;;;;13.40;99.90;;;;;;5100156;28;19927;-81
2022/09/09 03:55:45;;;;;;;;;;;13.40;99.90;;;;;;5117252;28;19930;-81
2022/09/09 03:58:11;;;;;;;;;;;13.50;99.90;;;;;;5117187;28;20018;-81
2022/09/09 04:00:40;;;;;;;;;;;13.50;99.90;;;;;;5117381;28;19924;-81
2022/09/09 04:03:05;;;;;;;;;;;13.50;99.90;;;;;;5100195;28;19928;-80
2022/09/09 04:05:33;;;;;;;;;;;13.50;99.90;;;;;;5099465;28;19991;-80
2022/09/09 04:07:59;;;;;;;;;;;13.50;99.90;;;;;;5117553;28;20233;-81
2022/09/09 04:10:24;;;;;;;;;;;13.50;99.90;;;;;;5083029;28;19930;-81
2022/09/09 04:12:50;;;;;;;;;;;13.50;99.90;;;;;;5100170;28;19978;-81
2022/09/09 04:15:16;;;;;;;;;;;13.50;99.90;;;;;;5116548;28;19931;-81
2022/09/09 04:17:42;;;;;;;;;;;13.50;99.90;;;;;;5117026;28;20308;-81
2022/09/09 04:20:11;;;;;;;;;;;13.50;99.90;;;;;;5099836;28;20010;-81
2022/09/09 04:22:38;;;;;;;;;;;13.50;99.90;;;;;;5100382;28;19928;-81
2022/09/09 04:25:05;;;;;;;;;;;13.60;99.90;;;;;;5116635;28;19928;-81
2022/09/09 04:27:31;;;;;;;;;;;13.60;99.90;;;;;;5116304;28;19994;-81
2022/09/09 04:29:57;;;;;;;;;;;13.60;99.90;;;;;;5100247;28;20356;-80
2022/09/09 04:32:23;;;;;;;;;;;13.60;99.90;;;;;;5117514;28;19931;-81
2022/09/09 04:34:48;;;;;;;;;;;13.60;99.90;;;;;;5099505;28;20010;-81
2022/09/09 04:37:14;;;;;;;;;;;13.60;99.90;;;;;;5116288;28;20335;-80
2022/09/09 04:39:40;;;;;;;;;;;13.60;99.90;;;;;;5099385;28;19923;-81
2022/09/09 04:42:05;;;;;;;;;;;13.60;99.90;;;;;;5116572;28;19928;-80
2022/09/09 04:44:31;;;;;;;;;;;13.60;99.90;;;;;;5116054;28;20051;-80
2022/09/09 04:46:57;;;;;;;;;;;13.60;99.90;;;;;;5115927;28;19928;-81
2022/09/09 04:49:23;;;;;;;;;;;13.60;99.90;;;;;;5116205;28;19977;-80
2022/09/09 04:51:49;;;;;;;;;;;13.60;99.90;;;;;;5116100;28;20321;-81
2022/09/09 04:54:14;;;;;;;;;;;13.60;99.90;;;;;;5115883;28;19924;-81
2022/09/09 04:56:41;;;;;;;;;;;13.60;99.90;;;;;;5115609;28;19956;-81
2022/09/09 04:59:07;;;;;;;;;;;13.60;99.90;;;;;;5115685;28;19970;-81
2022/09/09 05:01:33;;;;;;;;;;;13.60;99.90;;;;;;5098630;28;19920;-81
2022/09/09 05:03:58;;;;;;;;;;;13.60;99.90;;;;;;5097180;28;20014;-81
2022/09/09 05:06:24;;;;;;;;;;;13.60;99.90;;;;;;5095241;28;20439;-81
2022/09/09 05:08:50;;;;;;;;;;;13.60;99.90;;;;;;5096378;28;19924;-81
2022/09/09 05:11:17;;;;;;;;;;;13.60;99.90;;;;;;5095110;28;19932;-81
2022/09/09 05:13:43;;;;;;;;;;;13.70;99.90;;;;;;5095585;28;19924;-81
2022/09/09 05:16:10;;;;;;;;;;;13.60;99.90;;;;;;5095501;28;19931;-81
2022/09/09 05:18:37;;;;;;;;;;;13.60;99.90;;;;;;5078660;28;20011;-81
2022/09/09 05:21:02;;;;;;;;;;;13.70;99.90;;;;;;5095417;28;19928;-80
2022/09/09 05:23:28;;;;;;;;;;;13.70;99.90;;;;;;5078280;28;19928;-81
2022/09/09 05:25:57;;;;;;;;;;;13.70;99.90;;;;;;5095633;28;19928;-81
2022/09/09 05:28:24;;;;;;;;;;;13.70;99.90;;;;;;5094782;28;19924;-81
2022/09/09 05:31:00;;;;;;;;;;;13.80;99.90;;;;;;5078059;28;19924;-81
2022/09/09 05:33:26;;;;;;;;;;;13.80;99.90;;;;;;5095115;28;19931;-81
2022/09/09 05:35:59;;;;;;;;;;;13.80;99.90;;;;;;5095154;28;19924;-81
2022/09/09 05:38:25;;;;;;;;;;;13.90;99.90;;;;;;5094808;28;20389;-81
2022/09/09 05:40:52;;;;;;;;;;;13.90;99.90;;;;;;5094803;28;20019;-81
2022/09/09 05:43:20;;;;;;;;;;;14.00;99.90;;;;;;5094488;28;20410;-81
2022/09/09 05:45:47;;;;;;;;;;;14.00;99.90;;;;;;5094648;28;19924;-81
2022/09/09 05:48:14;;;;;;;;;;;14.10;99.90;;;;;;5078171;28;20347;-81
2022/09/09 05:50:40;;;;;;;;;;;14.10;99.90;;;;;;5094659;28;20023;-81
2022/09/09 05:53:06;;;;;;;;;;;14.10;99.90;;;;;;5094641;28;19979;-81
2022/09/09 05:55:31;;;;;;;;;;;14.10;99.90;;;;;;5094558;28;19973;-81
2022/09/09 05:57:57;;;;;;;;;;;14.20;99.90;;;;;;5094294;28;19969;-81
2022/09/09 06:00:23;;;;;;;;;;;14.20;99.90;;;;;;5077735;28;20279;-79
2022/09/09 06:02:52;;;;;;;;;;;14.30;99.90;;;;;;5094417;28;19927;-80
2022/09/09 06:05:18;;;;;;;;;;;14.30;99.90;;;;;;5095502;28;19929;-80
2022/09/09 06:07:44;;;;;;;;;;;14.30;99.90;;;;;;5076969;28;19928;-80
2022/09/09 06:10:10;;;;;;;;;;;14.30;99.90;;;;;;5094209;28;20030;-78
2022/09/09 06:12:36;;;;;;;;;;;14.30;99.90;;;;;;5077452;28;19997;-75
2022/09/09 06:15:01;;;;;;;;;;;14.40;99.90;;;;;;5060599;28;19924;-78
2022/09/09 06:17:27;;;;;;;;;;;14.40;99.90;;;;;;5094093;28;20391;-79
2022/09/09 06:19:53;;;;;;;;;;;14.40;99.90;;;;;;5094209;28;19924;-78
2022/09/09 06:22:19;;;;;;;;;;;14.40;99.90;;;;;;5076842;28;19928;-80
2022/09/09 06:24:44;;;;;;;;;;;14.50;99.90;;;;;;5077091;28;19973;-80
2022/09/09 06:27:10;;;;;;;;;;;14.50;99.90;;;;;;5059974;28;20414;-79
2022/09/09 06:29:36;;;;;;;;;;;14.50;99.90;;;;;;5076993;28;20310;-79
2022/09/09 06:32:02;;;;;;;;;;;14.50;99.90;;;;;;5077004;28;20019;-79
2022/09/09 06:34:28;;;;;;;;;;;14.50;99.90;;;;;;5094037;28;19928;-79
2022/09/09 06:36:53;;;;;;;;;;;14.60;99.90;;;;;;5093531;28;19928;-79
2022/09/09 06:39:19;;;;;;;;;;;14.60;99.90;;;;;;5076887;28;20007;-79
2022/09/09 06:41:45;;;;;;;;;;;14.70;99.90;;;;;;5093598;28;19924;-79
2022/09/09 06:44:11;;;;;;;;;;;14.70;99.90;;;;;;5076626;28;20345;-81
2022/09/09 06:46:37;;;;;;;;;;;14.70;99.90;;;;;;5076617;28;19931;-75
2022/09/09 06:49:03;;;;;;;;;;;14.80;99.90;;;;;;5093695;28;20015;-75
2022/09/09 06:51:30;;;;;;;;;;;14.90;99.90;;;;;;5093218;28;19974;-80
2022/09/09 06:53:58;;;;;;;;;;;14.90;99.90;;;;;;5093516;28;19973;-83
2022/09/09 06:56:25;;;;;;;;;;;14.90;99.90;;;;;;5093036;28;19954;-80
2022/09/09 06:58:51;;;;;;;;;;;15.00;99.90;;;;;;5093354;28;19923;-81
2022/09/09 07:01:21;;;;;;;;;;;15.00;99.90;;;;;;5093590;28;19924;-78
2022/09/09 07:03:48;;;;;;;;;;;15.10;99.90;;;;;;5093751;28;19924;-78
2022/09/09 07:06:15;;;;;;;;;;;15.10;99.90;;;;;;5094163;28;20363;-78
2022/09/09 07:08:41;;;;;;;;;;;15.20;99.90;;;;;;5076390;28;19924;-78
2022/09/09 07:11:07;;;;;;;;;;;15.10;99.90;;;;;;5093219;28;19935;-79
2022/09/09 07:13:33;;;;;;;;;;;15.10;99.90;;;;;;5093098;28;19925;-79
2022/09/09 07:16:07;;;;;;;;;;;15.20;99.90;;;;;;5093402;28;19969;-78
2022/09/09 07:18:33;;;;;;;;;;;15.40;99.90;;;;;;5093017;28;19924;-79
2022/09/09 07:20:58;;;;;;;;;;;15.40;99.90;;;;;;5092444;28;19978;-78
2022/09/09 07:23:24;;;;;;;;;;;15.40;99.90;;;;;;5092926;28;19928;-81
2022/09/09 07:25:51;;;;;;;;;;;15.50;99.90;;;;;;5076028;28;20225;-81
2022/09/09 07:28:17;;;;;;;;;;;15.50;99.90;;;;;;5092636;28;20392;-80
2022/09/09 07:30:42;;;;;;;;;;;15.50;99.90;;;;;;5075948;28;19931;-81
2022/09/09 07:33:09;;;;;;;;;;;15.50;99.90;;;;;;5092866;28;20384;-81
2022/09/09 07:35:36;;;;;;;;;;;15.60;99.90;;;;;;5092761;28;19923;-81
2022/09/09 07:38:04;;;;;;;;;;;15.50;99.90;;;;;;5076012;28;20019;-81
2022/09/09 07:40:30;;;;;;;;;;;15.60;99.90;;;;;;5092531;28;19924;-80
2022/09/09 07:42:55;;;;;;;;;;;15.70;99.90;;;;;;5093068;28;19924;-80
2022/09/09 07:45:21;;;;;;;;;;;15.80;99.90;;;;;;5092627;28;20011;-81
2022/09/09 07:47:48;;;;;;;;;;;15.90;99.90;;;;;;5075597;28;19930;-80
2022/09/09 07:50:14;;;;;;;;;;;16.00;99.90;;;;;;5093138;28;19935;-84
2022/09/09 07:52:40;;;;;;;;;;;16.10;99.90;;;;;;5092203;28;20332;-76
2022/09/09 07:55:06;;;;;;;;;;;16.10;99.90;;;;;;5093000;28;19924;-76
2022/09/09 07:57:32;;;;;;;;;;;16.20;99.90;;;;;;5092414;28;20251;-81
2022/09/09 07:59:57;;;;;;;;;;;16.30;99.90;;;;;;5058795;28;19928;-81
2022/09/09 08:02:25;;;;;;;;;;;16.40;99.90;;;;;;5075481;28;19924;-84
2022/09/09 08:04:51;;;;;;;;;;;16.50;99.90;;;;;;5085043;28;19967;-86
2022/09/09 08:07:17;;;;;;;;;;;16.50;99.90;;;;;;5112471;28;19981;-78
2022/09/09 08:09:43;;;;;;;;;;;16.50;99.90;;;;;;5112463;28;19978;-81
2022/09/09 08:12:10;;;;;;;;;;;16.50;99.90;;;;;;5095773;28;19931;-81
2022/09/09 08:14:36;;;;;;;;;;;16.70;99.90;;;;;;5096828;28;19997;-81
2022/09/09 08:17:01;;;;;;;;;;;16.60;99.90;;;;;;5113516;28;19985;-81
2022/09/09 08:19:29;;;;;;;;;;;16.60;99.90;;;;;;5114055;28;19924;-81
2022/09/09 08:21:55;;;;;;;;;;;16.70;99.90;;;;;;5112376;28;20368;-80
2022/09/09 08:24:20;;;;;;;;;;;16.70;99.90;;;;;;5112484;28;19930;-80
2022/09/09 08:26:48;;;;;;;;;;;16.80;99.90;;;;;;5113051;28;19924;-80
2022/09/09 08:29:14;;;;;;;;;;;16.90;99.90;;;;;;5112643;28;19936;-83
2022/09/09 08:31:45;;;;;;;;;;;17.00;99.90;;;;;;5113961;28;19973;-79
2022/09/09 08:34:11;;;;;;;;;;;17.00;99.90;;;;;;5116156;28;20015;-79
2022/09/09 08:36:38;;;;;;;;;;;17.00;99.90;;;;;;5116359;28;20035;-79
2022/09/09 08:39:05;;;;;;;;;;;17.00;99.90;;;;;;5118198;28;20333;-78
2022/09/09 08:41:33;;;;;;;;;;;17.20;99.90;;;;;;5116255;28;19924;-79
2022/09/09 08:44:06;;;;;;;;;;;17.40;99.90;;;;;;5116312;28;20371;-79
2022/09/09 08:46:32;;;;;;;;;;;17.50;99.90;;;;;;5117009;28;19924;-78
2022/09/09 08:49:14;;;;;;;;;;;17.50;99.90;;;;;;5117043;28;19927;-78
2022/09/09 08:51:41;;;;;;;;;;;17.60;99.90;;;;;;5116332;28;19938;-79
2022/09/09 08:54:08;;;;;;;;;;;17.50;99.90;;;;;;5115865;28;19928;-78
2022/09/09 08:56:35;;;;;;;;;;;17.40;99.90;;;;;;5115723;28;19928;-78
2022/09/09 08:59:05;;;;;;;;;;;17.50;99.90;;;;;;5115829;28;19960;-78
2022/09/09 09:01:40;;;;;;;;;;;17.50;99.90;;;;;;5116611;28;19924;-79
2022/09/09 09:04:24;;;;;;;;;;;17.50;99.90;;;;;;5112397;28;19939;-78
2022/09/09 09:06:50;;;;;;;;;;;17.50;99.90;;;;;;5096131;28;19924;-78
2022/09/09 09:09:21;;;;;;;;;;;17.50;99.90;;;;;;5095176;28;19924;-78
2022/09/09 09:11:52;;;;;;;;;;;17.50;99.90;;;;;;5095392;28;19924;-79
2022/09/09 09:14:23;;;;;;;;;;;17.50;99.90;;;;;;5095301;28;20295;-79
2022/09/09 09:17:03;;;;;;;;;;;17.60;99.90;;;;;;5095375;28;20383;-78
2022/09/09 09:19:29;;;;;;;;;;;17.60;99.90;;;;;;5095374;28;19924;-79
2022/09/09 09:22:17;;;;;;;;;;;17.50;99.90;;;;;;5095041;28;20283;-79
2022/09/09 09:24:52;;;;;;;;;;;17.50;99.90;;;;;;5095266;28;19977;-79
2022/09/09 09:27:36;;;;;;;;;;;17.50;99.90;;;;;;5096020;28;19924;-79
2022/09/09 09:30:12;;;;;;;;;;;17.60;99.90;;;;;;5094993;28;19949;-79
2022/09/09 09:32:39;;;;;;;;;;;17.60;99.90;;;;;;5095746;28;19924;-80
2022/09/09 09:35:09;;;;;;;;;;;17.60;99.90;;;;;;5094951;28;19935;-80
2022/09/09 09:37:35;;;;;;;;;;;17.50;99.90;;;;;;5095828;28;19935;-79
2022/09/09 09:40:14;;;;;;;;;;;17.50;99.90;;;;;;5094646;28;19924;-79
2022/09/09 09:42:49;;;;;;;;;;;17.50;99.90;;;;;;5095132;28;19947;-79
2022/09/09 09:45:35;;;;;;;;;;;17.60;99.90;;;;;;5094603;28;19924;-79
2022/09/09 09:48:05;;;;;;;;;;;17.50;99.90;;;;;;5110321;28;19964;-79
2022/09/09 09:50:31;;;;;;;;;;;17.50;99.90;;;;;;5094308;28;19940;-76
2022/09/09 09:52:58;;;;;;;;;;;17.40;99.90;;;;;;5093864;28;19931;-80
2022/09/09 09:55:24;;;;;;;;;;;17.40;99.90;;;;;;5094710;28;20295;-79
2022/09/09 09:57:50;;;;;;;;;;;17.40;99.90;;;;;;5094084;28;20001;-80
2022/09/09 10:00:17;;;;;;;;;;;17.50;99.90;;;;;;5094755;28;20330;-77
2022/09/09 10:02:44;;;;;;;;;;;17.50;99.90;;;;;;5077116;28;19924;-80
2022/09/09 10:05:18;;;;;;;;;;;17.60;99.90;;;;;;5089020;28;20333;-80
2022/09/09 10:07:45;;;;;;;;;;;17.60;99.90;;;;;;5096715;28;19930;-79
2022/09/09 10:10:15;;;;;;;;;;;17.80;99.90;;;;;;5096896;28;19923;-79
2022/09/09 10:12:56;;;;;;;;;;;18.10;99.90;;;;;;5114153;28;19930;-79
2022/09/09 10:15:31;;;;;;;;;;;18.20;99.90;;;;;;5114412;28;20019;-79
2022/09/09 10:18:16;;;;;;;;;;;18.30;99.90;;;;;;5113933;28;19923;-80
2022/09/09 10:20:51;;;;;;;;;;;18.30;99.90;;;;;;5113760;28;20014;-81
2022/09/09 10:23:19;;;;;;;;;;;18.40;99.90;;;;;;5113889;28;19923;-80
2022/09/09 10:26:04;;;;;;;;;;;18.40;99.90;;;;;;5113649;28;20367;-81
2022/09/09 10:28:40;;;;;;;;;;;18.40;99.90;;;;;;5114757;28;20283;-81
2022/09/09 10:31:12;;;;;;;;;;;18.30;99.90;;;;;;5113767;28;19930;-80
2022/09/09 10:33:51;;;;;;;;;;;18.30;99.90;;;;;;5113962;28;19930;-79
2022/09/09 10:36:20;;;;;;;;;;;18.30;99.90;;;;;;5114689;28;19930;-81
2022/09/09 10:38:47;;;;;;;;;;;18.30;99.90;;;;;;5096767;28;19947;-80
2022/09/09 10:41:21;;;;;;;;;;;18.30;99.90;;;;;;5113362;28;19923;-80
2022/09/09 10:43:50;;;;;;;;;;;18.40;99.90;;;;;;5114015;28;20271;-80
2022/09/09 10:46:17;;;;;;;;;;;18.50;99.90;;;;;;5113423;28;19981;-79
2022/09/09 10:49:03;;;;;;;;;;;18.70;99.90;;;;;;5113514;28;20372;-81
2022/09/09 10:51:40;;;;;;;;;;;18.90;99.90;;;;;;5113419;28;19931;-81
2022/09/09 10:54:05;;;;;;;;;;;19.10;99.90;;;;;;5113334;28;19931;-80
2022/09/09 10:56:34;;;;;;;;;;;19.50;99.90;;;;;;5113433;28;19923;-80
2022/09/09 10:59:07;;;;;;;;;;;19.60;99.90;;;;;;5096554;28;19973;-80
2022/09/09 11:01:49;;;;;;;;;;;19.60;99.90;;;;;;5113338;28;19931;-81
2022/09/09 11:04:23;;;;;;;;;;;19.50;99.90;;;;;;5112781;28;19992;-82
2022/09/09 11:06:52;;;;;;;;;;;19.50;99.90;;;;;;5096031;28;19938;-81
2022/09/09 11:09:21;;;;;;;;;;;19.80;99.90;;;;;;5096219;28;19996;-81
2022/09/09 11:11:54;;;;;;;;;;;19.80;99.90;;;;;;5112145;28;19977;-79
2022/09/09 11:14:23;;;;;;;;;;;19.90;99.90;;;;;;5095723;28;19923;-81
2022/09/09 11:16:51;;;;;;;;;;;19.90;99.90;;;;;;5112620;28;20014;-80
2022/09/09 11:19:30;;;;;;;;;;;20.20;99.90;;;;;;5113105;28;19923;-79
2022/09/09 11:21:58;;;;;;;;;;;20.60;99.90;;;;;;5096117;28;19931;-80
2022/09/09 11:24:26;;;;;;;;;;;20.80;99.90;;;;;;5095947;28;19973;-83
2022/09/09 11:26:52;;;;;;;;;;;21.00;99.90;;;;;;5112696;28;19923;-80
2022/09/09 11:29:30;;;;;;;;;;;21.40;99.90;;;;;;5112621;28;19924;-80
2022/09/09 11:31:59;;;;;;;;;;;21.30;99.90;;;;;;5112998;28;19981;-80
2022/09/09 11:34:38;;;;;;;;;;;21.50;99.90;;;;;;5112835;28;19928;-80
2022/09/09 11:37:23;;;;;;;;;;;21.90;99.90;;;;;;5095736;28;20018;-80
2022/09/09 11:40:00;;;;;;;;;;;22.00;99.90;;;;;;5112245;28;19924;-79
2022/09/09 11:42:25;;;;;;;;;;;22.10;99.90;;;;;;5112983;28;19924;-79
2022/09/09 11:44:53;;;;;;;;;;;22.30;99.90;;;;;;5112619;28;19924;-81
2022/09/09 11:47:24;;;;;;;;;;;22.60;99.90;;;;;;5112572;28;19928;-79
2022/09/09 11:49:49;;;;;;;;;;;22.50;99.90;;;;;;5096363;28;19924;-80
2022/09/09 11:52:23;;;;;;;;;;;22.60;99.90;;;;;;5078710;28;19924;-79
2022/09/09 11:54:50;;;;;;;;;;;22.90;99.90;;;;;;5113161;28;20019;-80
2022/09/09 11:57:33;;;;;;;;;;;23.00;99.90;;;;;;5112912;28;19927;-79
2022/09/09 11:59:59;;;;;;;;;;;22.90;99.90;;;;;;5095356;28;19927;-79
2022/09/09 12:02:26;;;;;;;;;;;22.70;99.90;;;;;;5095893;28;19983;-79
2022/09/09 12:04:52;;;;;;;;;;;23.00;99.90;;;;;;5112539;28;19975;-79
2022/09/09 12:07:20;;;;;;;;;;;23.60;99.90;;;;;;5098203;28;20379;-81
2022/09/09 12:09:51;;;;;;;;;;;23.60;99.90;;;;;;5116039;28;19967;-79
2022/09/09 12:12:25;;;;;;;;;;;23.50;99.90;;;;;;5099660;28;19931;-79
2022/09/09 12:15:00;;;;;;;;;;;23.50;99.90;;;;;;5117243;28;20391;-78
2022/09/09 12:17:27;;;;;;;;;;;23.60;99.90;;;;;;5116448;28;19924;-78
2022/09/09 12:20:13;;;;;;;;;;;24.00;99.90;;;;;;5116434;28;19927;-79
2022/09/09 12:22:48;;;;;;;;;;;24.00;99.90;;;;;;5099682;28;19931;-79
2022/09/09 12:25:32;;;;;;;;;;;23.40;99.90;;;;;;5117414;28;19973;-79
2022/09/09 12:28:04;;;;;;;;;;;23.40;99.90;;;;;;5099351;28;20027;-79
2022/09/09 12:30:36;;;;;;;;;;;22.90;99.90;;;;;;5117027;28;19969;-79
2022/09/09 12:33:08;;;;;;;;;;;22.30;99.90;;;;;;5099286;28;19924;-79
2022/09/09 12:35:35;;;;;;;;;;;22.20;99.90;;;;;;5116237;28;19935;-79
2022/09/09 12:38:02;;;;;;;;;;;22.00;99.90;;;;;;5099798;28;19924;-79
2022/09/09 12:40:28;;;;;;;;;;;21.60;99.90;;;;;;5117119;28;19923;-78
2022/09/09 12:42:58;;;;;;;;;;;21.30;99.90;;;;;;5098616;28;20383;-78
2022/09/09 12:45:26;;;;;;;;;;;21.20;99.90;;;;;;5099264;28;19927;-78
2022/09/09 12:47:54;;;;;;;;;;;20.70;99.90;;;;;;5115251;28;19924;-79
2022/09/09 12:50:30;;;;;;;;;;;20.50;99.90;;;;;;5115897;28;19949;-78
2022/09/09 12:53:00;;;;;;;;;;;20.40;99.90;;;;;;5098776;28;19923;-78
2022/09/09 12:55:33;;;;;;;;;;;20.40;99.90;;;;;;5115828;28;19979;-78
2022/09/09 12:58:00;;;;;;;;;;;20.40;99.90;;;;;;5115748;28;19930;-78
2022/09/09 13:00:26;;;;;;;;;;;20.50;99.90;;;;;;5115448;28;19924;-77
2022/09/09 13:02:56;;;;;;;;;;;20.30;99.90;;;;;;5117241;28;19923;-78
2022/09/09 13:05:23;;;;;;;;;;;20.50;99.90;;;;;;5101251;28;19932;-78
2022/09/09 13:07:49;;;;;;;;;;;20.50;99.90;;;;;;5095086;28;19989;-78
2022/09/09 13:10:20;;;;;;;;;;;20.60;99.90;;;;;;5078026;28;20003;-78
2022/09/09 13:12:47;;;;;;;;;;;20.80;99.90;;;;;;5095501;28;20014;-77
2022/09/09 13:15:16;;;;;;;;;;;20.70;99.90;;;;;;5095201;28;20291;-78
2022/09/09 13:17:42;;;;;;;;;;;20.60;99.90;;;;;;5093753;28;19924;-77
2022/09/09 13:20:16;;;;;;;;;;;20.90;99.90;;;;;;5061232;28;19924;-78
2022/09/09 13:22:42;;;;;;;;;;;21.70;99.90;;;;;;5095067;28;20019;-78
2022/09/09 13:25:11;;;;;;;;;;;22.30;99.90;;;;;;5095026;28;19967;-79
2022/09/09 13:27:41;;;;;;;;;;;22.20;99.90;;;;;;5077627;28;19932;-78
2022/09/09 13:30:40;;;;;;;;;;;22.10;99.90;;;;;;5094670;28;19927;-78
2022/09/09 13:33:06;;;;;;;;;;;21.90;99.90;;;;;;5039997;28;19928;-78
2022/09/09 13:35:32;;;;;;;;;;;21.60;99.90;;;;;;5077756;28;19947;-78
2022/09/09 13:37:59;;;;;;;;;;;21.60;99.90;;;;;;5111302;28;19967;-78
2022/09/09 13:40:24;;;;;;;;;;;21.60;99.90;;;;;;5094406;28;20248;-77
2022/09/09 13:42:57;;;;;;;;;;;21.30;99.90;;;;;;5095563;28;20019;-78
2022/09/09 13:45:26;;;;;;;;;;;21.10;99.90;;;;;;5095637;28;20401;-77
2022/09/09 13:47:55;;;;;;;;;;;20.90;99.90;;;;;;5094690;28;19928;-77
2022/09/09 13:50:30;;;;;;;;;;;20.60;99.90;;;;;;5094519;28;20438;-76
2022/09/09 13:52:58;;;;;;;;;;;20.60;99.90;;;;;;5095298;28;19928;-78
2022/09/09 13:55:25;;;;;;;;;;;21.40;99.90;;;;;;5095783;28;19928;-77
2022/09/09 13:57:58;;;;;;;;;;;22.40;99.90;;;;;;5094223;28;20398;-78
2022/09/09 14:00:24;;;;;;;;;;;22.80;99.90;;;;;;5078079;28;20272;-77
2022/09/09 14:02:50;;;;;;;;;;;23.40;99.90;;;;;;5094151;28;19924;-77
2022/09/09 14:05:15;;;;;;;;;;;23.80;99.90;;;;;;5106556;28;20338;-78
2022/09/09 14:07:42;;;;;;;;;;;23.40;99.90;;;;;;5097036;28;19931;-78
2022/09/09 14:10:08;;;;;;;;;;;22.80;99.90;;;;;;5114989;28;20229;-79
2022/09/09 14:12:33;;;;;;;;;;;22.00;99.90;;;;;;5114397;28;19938;-77
2022/09/09 14:14:59;;;;;;;;;;;21.50;99.90;;;;;;5097330;28;20351;-78
2022/09/09 14:17:29;;;;;;;;;;;21.20;99.90;;;;;;5097058;28;19930;-80
2022/09/09 14:19:54;;;;;;;;;;;20.80;99.90;;;;;;5097956;28;20343;-80
2022/09/09 14:22:20;;;;;;;;;;;20.90;99.90;;;;;;5113823;28;19923;-80
2022/09/09 14:24:46;;;;;;;;;;;21.50;99.90;;;;;;5115513;28;19953;-79
2022/09/09 14:27:11;;;;;;;;;;;22.70;99.90;;;;;;5113508;28;19970;-79